Dunhua, China
Current Conditions -  °F | °C
As of 5:00 PM on Sunday 26 Oct 2014 (Local Time) from ZYCC Reporting Station
Broken Clouds Broken Clouds  
Wind Chill: 33°   Ceiling: 2600
Heat Index: 39°   Visibility: 6mi
Dew Point: 14°   Wind: 9mph
Humidity: 36%   Direction: 310°NW
Pressure: 30.24"   Gusts: NA
Location:  43.35°N, 128.22°E
Report Text: ZYCC 260900Z 31004MPS 280V340 9999 BKN026 04/M10 Q1024 NOSIG
Loading
Personal Weather Stations






























Interactive Weather Map
Tropical Storm Tracking
New forecast layout! Learn more

10-Day Weather Forecast

Advertisements
Track Severe Weather on mobile